sensor_id;sensor_type;location;lat;lon;timestamp;P1;durP1;ratioP1;P2;durP2;ratioP2
5819;SDS011;2936;47.348;9.640;2023-04-02T00:01:24;2.50;;;2.40;;
5819;SDS011;2936;47.348;9.640;2023-04-02T00:04:02;2.47;;;2.22;;
5819;SDS011;2936;47.348;9.640;2023-04-02T00:06:33;2.70;;;2.60;;
5819;SDS011;2936;47.348;9.640;2023-04-02T00:09:16;3.15;;;3.05;;
5819;SDS011;2936;47.348;9.640;2023-04-02T00:11:48;2.80;;;2.50;;
5819;SDS011;2936;47.348;9.640;2023-04-02T00:14:21;2.70;;;2.60;;
5819;SDS011;2936;47.348;9.640;2023-04-02T00:16:49;2.50;;;2.40;;
5819;SDS011;2936;47.348;9.640;2023-04-02T00:19:19;3.00;;;2.90;;
5819;SDS011;2936;47.348;9.640;2023-04-02T00:21:48;3.35;;;3.22;;
5819;SDS011;2936;47.348;9.640;2023-04-02T00:24:18;2.78;;;2.58;;
5819;SDS011;2936;47.348;9.640;2023-04-02T00:26:48;3.88;;;3.58;;
5819;SDS011;2936;47.348;9.640;2023-04-02T00:29:16;3.25;;;2.95;;
5819;SDS011;2936;47.348;9.640;2023-04-02T00:31:44;2.97;;;2.88;;
5819;SDS011;2936;47.348;9.640;2023-04-02T00:34:14;3.88;;;3.67;;
5819;SDS011;2936;47.348;9.640;2023-04-02T00:36:42;3.00;;;2.80;;
5819;SDS011;2936;47.348;9.640;2023-04-02T00:39:12;2.90;;;2.80;;
5819;SDS011;2936;47.348;9.640;2023-04-02T00:41:41;2.80;;;2.60;;
5819;SDS011;2936;47.348;9.640;2023-04-02T00:44:13;2.80;;;2.60;;
5819;SDS011;2936;47.348;9.640;2023-04-02T00:46:46;3.30;;;3.10;;
5819;SDS011;2936;47.348;9.640;2023-04-02T00:49:19;3.17;;;2.88;;
5819;SDS011;2936;47.348;9.640;2023-04-02T00:51:48;3.00;;;2.80;;
5819;SDS011;2936;47.348;9.640;2023-04-02T00:54:18;3.08;;;2.97;;
5819;SDS011;2936;47.348;9.640;2023-04-02T00:56:47;3.30;;;3.10;;
5819;SDS011;2936;47.348;9.640;2023-04-02T00:59:19;3.00;;;2.90;;
5819;SDS011;2936;47.348;9.640;2023-04-02T01:01:50;2.90;;;2.80;;
5819;SDS011;2936;47.348;9.640;2023-04-02T01:04:25;3.00;;;2.90;;
5819;SDS011;2936;47.348;9.640;2023-04-02T01:06:53;3.08;;;2.88;;
5819;SDS011;2936;47.348;9.640;2023-04-02T01:09:25;2.72;;;2.63;;
5819;SDS011;2936;47.348;9.640;2023-04-02T01:11:59;2.70;;;2.60;;
5819;SDS011;2936;47.348;9.640;2023-04-02T01:14:36;2.95;;;2.80;;
5819;SDS011;2936;47.348;9.640;2023-04-02T01:17:07;2.83;;;2.72;;
5819;SDS011;2936;47.348;9.640;2023-04-02T01:22:33;3.55;;;3.35;;
5819;SDS011;2936;47.348;9.640;2023-04-02T01:25:05;3.00;;;2.90;;
5819;SDS011;2936;47.348;9.640;2023-04-02T01:27:33;3.65;;;3.45;;
5819;SDS011;2936;47.348;9.640;2023-04-02T01:30:07;3.60;;;3.40;;
5819;SDS011;2936;47.348;9.640;2023-04-02T01:32:36;3.47;;;3.33;;
5819;SDS011;2936;47.348;9.640;2023-04-02T01:35:05;4.32;;;3.33;;
5819;SDS011;2936;47.348;9.640;2023-04-02T01:37:34;3.17;;;2.97;;
5819;SDS011;2936;47.348;9.640;2023-04-02T01:40:13;3.72;;;3.55;;
5819;SDS011;2936;47.348;9.640;2023-04-02T01:42:47;4.68;;;3.15;;
5819;SDS011;2936;47.348;9.640;2023-04-02T01:45:18;5.03;;;3.40;;
5819;SDS011;2936;47.348;9.640;2023-04-02T01:47:47;4.88;;;4.63;;
5819;SDS011;2936;47.348;9.640;2023-04-02T01:50:20;7.07;;;3.78;;
5819;SDS011;2936;47.348;9.640;2023-04-02T01:52:48;4.22;;;3.92;;
5819;SDS011;2936;47.348;9.640;2023-04-02T01:55:18;3.80;;;3.60;;
5819;SDS011;2936;47.348;9.640;2023-04-02T01:57:47;3.80;;;3.60;;
5819;SDS011;2936;47.348;9.640;2023-04-02T02:00:17;3.70;;;3.50;;
5819;SDS011;2936;47.348;9.640;2023-04-02T02:02:47;3.92;;;3.72;;
5819;SDS011;2936;47.348;9.640;2023-04-02T02:05:16;3.35;;;3.25;;
5819;SDS011;2936;47.348;9.640;2023-04-02T02:07:44;6.75;;;4.00;;
5819;SDS011;2936;47.348;9.640;2023-04-02T02:10:12;4.05;;;3.78;;
5819;SDS011;2936;47.348;9.640;2023-04-02T02:12:40;3.90;;;3.70;;
5819;SDS011;2936;47.348;9.640;2023-04-02T02:15:12;3.63;;;3.47;;
5819;SDS011;2936;47.348;9.640;2023-04-02T02:17:42;4.20;;;3.90;;
5819;SDS011;2936;47.348;9.640;2023-04-02T02:20:10;8.13;;;3.45;;
5819;SDS011;2936;47.348;9.640;2023-04-02T02:22:39;4.00;;;3.70;;
5819;SDS011;2936;47.348;9.640;2023-04-02T02:25:10;3.58;;;3.47;;
5819;SDS011;2936;47.348;9.640;2023-04-02T02:27:47;3.78;;;3.58;;
5819;SDS011;2936;47.348;9.640;2023-04-02T02:30:16;3.72;;;3.53;;
5819;SDS011;2936;47.348;9.640;2023-04-02T02:32:50;3.25;;;3.15;;
5819;SDS011;2936;47.348;9.640;2023-04-02T02:35:19;3.35;;;3.25;;
5819;SDS011;2936;47.348;9.640;2023-04-02T02:37:49;3.35;;;3.25;;
5819;SDS011;2936;47.348;9.640;2023-04-02T02:40:19;3.22;;;3.03;;
5819;SDS011;2936;47.348;9.640;2023-04-02T02:42:48;4.95;;;3.50;;
5819;SDS011;2936;47.348;9.640;2023-04-02T02:45:17;3.75;;;3.45;;
5819;SDS011;2936;47.348;9.640;2023-04-02T02:47:46;3.75;;;3.55;;
5819;SDS011;2936;47.348;9.640;2023-04-02T02:50:17;3.90;;;3.70;;
5819;SDS011;2936;47.348;9.640;2023-04-02T02:52:49;4.20;;;3.75;;
5819;SDS011;2936;47.348;9.640;2023-04-02T02:55:19;3.70;;;3.55;;
5819;SDS011;2936;47.348;9.640;2023-04-02T02:57:49;4.70;;;3.70;;
5819;SDS011;2936;47.348;9.640;2023-04-02T03:00:17;4.40;;;4.20;;
5819;SDS011;2936;47.348;9.640;2023-04-02T03:02:48;5.32;;;3.75;;
5819;SDS011;2936;47.348;9.640;2023-04-02T03:05:19;4.70;;;3.80;;
5819;SDS011;2936;47.348;9.640;2023-04-02T03:07:47;3.70;;;3.50;;
5819;SDS011;2936;47.348;9.640;2023-04-02T03:10:16;4.10;;;3.90;;
5819;SDS011;2936;47.348;9.640;2023-04-02T03:12:48;4.35;;;4.05;;
5819;SDS011;2936;47.348;9.640;2023-04-02T03:15:18;4.47;;;4.18;;
5819;SDS011;2936;47.348;9.640;2023-04-02T03:17:50;3.83;;;3.72;;
5819;SDS011;2936;47.348;9.640;2023-04-02T03:20:23;4.25;;;3.83;;
5819;SDS011;2936;47.348;9.640;2023-04-02T03:22:53;3.95;;;3.75;;
5819;SDS011;2936;47.348;9.640;2023-04-02T03:25:25;4.43;;;4.00;;
5819;SDS011;2936;47.348;9.640;2023-04-02T03:27:55;5.65;;;3.60;;
5819;SDS011;2936;47.348;9.640;2023-04-02T03:30:26;4.05;;;3.85;;
5819;SDS011;2936;47.348;9.640;2023-04-02T03:32:56;3.88;;;3.65;;
5819;SDS011;2936;47.348;9.640;2023-04-02T03:35:28;3.63;;;3.53;;
5819;SDS011;2936;47.348;9.640;2023-04-02T03:37:59;3.90;;;3.70;;
5819;SDS011;2936;47.348;9.640;2023-04-02T03:40:29;4.07;;;3.78;;
5819;SDS011;2936;47.348;9.640;2023-04-02T03:42:58;3.72;;;3.42;;
5819;SDS011;2936;47.348;9.640;2023-04-02T03:45:28;4.00;;;3.60;;
5819;SDS011;2936;47.348;9.640;2023-04-02T03:47:57;3.90;;;3.63;;
5819;SDS011;2936;47.348;9.640;2023-04-02T03:50:29;3.67;;;3.50;;
5819;SDS011;2936;47.348;9.640;2023-04-02T03:52:57;3.83;;;3.40;;
5819;SDS011;2936;47.348;9.640;2023-04-02T03:55:26;8.70;;;3.60;;
5819;SDS011;2936;47.348;9.640;2023-04-02T03:57:56;3.40;;;3.30;;
5819;SDS011;2936;47.348;9.640;2023-04-02T04:00:28;3.58;;;3.28;;
5819;SDS011;2936;47.348;9.640;2023-04-02T04:02:58;3.63;;;3.42;;
5819;SDS011;2936;47.348;9.640;2023-04-02T04:05:31;12.63;;;4.00;;
5819;SDS011;2936;47.348;9.640;2023-04-02T04:08:01;3.85;;;3.55;;
5819;SDS011;2936;47.348;9.640;2023-04-02T04:10:29;3.72;;;3.10;;
5819;SDS011;2936;47.348;9.640;2023-04-02T04:13:00;3.60;;;3.40;;
5819;SDS011;2936;47.348;9.640;2023-04-02T04:15:29;3.95;;;3.65;;
5819;SDS011;2936;47.348;9.640;2023-04-02T04:18:00;3.70;;;3.45;;
5819;SDS011;2936;47.348;9.640;2023-04-02T04:20:33;3.53;;;3.40;;
5819;SDS011;2936;47.348;9.640;2023-04-02T04:23:08;3.80;;;3.60;;
5819;SDS011;2936;47.348;9.640;2023-04-02T04:25:37;4.22;;;3.80;;
5819;SDS011;2936;47.348;9.640;2023-04-02T04:28:07;4.00;;;3.80;;
5819;SDS011;2936;47.348;9.640;2023-04-02T04:30:39;4.55;;;4.15;;
5819;SDS011;2936;47.348;9.640;2023-04-02T04:33:11;4.07;;;3.88;;
5819;SDS011;2936;47.348;9.640;2023-04-02T04:35:44;4.68;;;4.38;;
5819;SDS011;2936;47.348;9.640;2023-04-02T04:38:13;4.80;;;3.95;;
5819;SDS011;2936;47.348;9.640;2023-04-02T04:40:43;5.18;;;4.78;;
5819;SDS011;2936;47.348;9.640;2023-04-02T04:43:17;8.00;;;7.28;;
5819;SDS011;2936;47.348;9.640;2023-04-02T04:45:46;7.50;;;6.57;;
5819;SDS011;2936;47.348;9.640;2023-04-02T04:48:17;6.55;;;4.70;;
5819;SDS011;2936;47.348;9.640;2023-04-02T04:50:48;4.75;;;4.40;;
5819;SDS011;2936;47.348;9.640;2023-04-02T04:53:19;4.70;;;4.40;;
5819;SDS011;2936;47.348;9.640;2023-04-02T04:55:47;4.38;;;4.07;;
5819;SDS011;2936;47.348;9.640;2023-04-02T04:58:17;4.28;;;4.10;;
5819;SDS011;2936;47.348;9.640;2023-04-02T05:00:47;5.25;;;4.95;;
5819;SDS011;2936;47.348;9.640;2023-04-02T05:03:17;5.57;;;4.47;;
5819;SDS011;2936;47.348;9.640;2023-04-02T05:05:48;4.20;;;4.00;;
5819;SDS011;2936;47.348;9.640;2023-04-02T05:08:18;4.75;;;4.55;;
5819;SDS011;2936;47.348;9.640;2023-04-02T05:10:48;7.50;;;6.70;;
5819;SDS011;2936;47.348;9.640;2023-04-02T05:13:17;9.90;;;7.95;;
5819;SDS011;2936;47.348;9.640;2023-04-02T05:15:49;8.18;;;7.47;;
5819;SDS011;2936;47.348;9.640;2023-04-02T05:18:20;7.72;;;7.13;;
5819;SDS011;2936;47.348;9.640;2023-04-02T05:20:53;29.35;;;19.95;;
5819;SDS011;2936;47.348;9.640;2023-04-02T05:23:23;6.03;;;5.50;;
5819;SDS011;2936;47.348;9.640;2023-04-02T05:25:53;5.20;;;4.60;;
5819;SDS011;2936;47.348;9.640;2023-04-02T05:28:24;4.10;;;3.80;;
5819;SDS011;2936;47.348;9.640;2023-04-02T05:30:53;4.85;;;4.30;;
5819;SDS011;2936;47.348;9.640;2023-04-02T05:33:23;4.38;;;4.00;;
5819;SDS011;2936;47.348;9.640;2023-04-02T05:35:54;13.73;;;11.65;;
5819;SDS011;2936;47.348;9.640;2023-04-02T05:38:24;20.70;;;14.55;;
5819;SDS011;2936;47.348;9.640;2023-04-02T05:40:53;12.35;;;8.27;;
5819;SDS011;2936;47.348;9.640;2023-04-02T05:43:24;7.40;;;6.50;;
5819;SDS011;2936;47.348;9.640;2023-04-02T05:45:53;9.10;;;8.20;;
5819;SDS011;2936;47.348;9.640;2023-04-02T05:48:21;8.05;;;7.35;;
5819;SDS011;2936;47.348;9.640;2023-04-02T05:50:55;4.80;;;4.53;;
5819;SDS011;2936;47.348;9.640;2023-04-02T05:53:24;4.78;;;4.38;;
5819;SDS011;2936;47.348;9.640;2023-04-02T05:55:53;4.60;;;4.20;;
5819;SDS011;2936;47.348;9.640;2023-04-02T05:58:24;4.28;;;3.90;;
5819;SDS011;2936;47.348;9.640;2023-04-02T06:00:59;4.40;;;4.05;;
5819;SDS011;2936;47.348;9.640;2023-04-02T06:03:30;4.10;;;3.90;;
5819;SDS011;2936;47.348;9.640;2023-04-02T06:06:04;3.95;;;3.65;;
5819;SDS011;2936;47.348;9.640;2023-04-02T06:08:34;3.35;;;3.25;;
5819;SDS011;2936;47.348;9.640;2023-04-02T06:11:05;5.68;;;5.28;;
5819;SDS011;2936;47.348;9.640;2023-04-02T06:13:34;9.15;;;6.95;;
5819;SDS011;2936;47.348;9.640;2023-04-02T06:16:01;8.10;;;6.60;;
5819;SDS011;2936;47.348;9.640;2023-04-02T06:18:30;15.13;;;9.73;;
5819;SDS011;2936;47.348;9.640;2023-04-02T06:20:58;6.90;;;6.18;;
5819;SDS011;2936;47.348;9.640;2023-04-02T06:23:30;6.68;;;6.00;;
5819;SDS011;2936;47.348;9.640;2023-04-02T06:26:00;4.97;;;4.53;;
5819;SDS011;2936;47.348;9.640;2023-04-02T06:28:30;7.47;;;6.07;;
5819;SDS011;2936;47.348;9.640;2023-04-02T06:31:00;10.55;;;7.22;;
5819;SDS011;2936;47.348;9.640;2023-04-02T06:33:31;7.85;;;6.00;;
5819;SDS011;2936;47.348;9.640;2023-04-02T06:35:59;17.08;;;7.43;;
5819;SDS011;2936;47.348;9.640;2023-04-02T06:38:28;5.22;;;4.85;;
5819;SDS011;2936;47.348;9.640;2023-04-02T06:40:57;4.72;;;4.43;;
5819;SDS011;2936;47.348;9.640;2023-04-02T06:43:26;4.50;;;4.20;;
5819;SDS011;2936;47.348;9.640;2023-04-02T06:45:58;6.22;;;5.82;;
5819;SDS011;2936;47.348;9.640;2023-04-02T06:48:26;5.00;;;4.70;;
5819;SDS011;2936;47.348;9.640;2023-04-02T06:50:55;5.35;;;4.72;;
5819;SDS011;2936;47.348;9.640;2023-04-02T06:53:24;4.40;;;4.18;;
5819;SDS011;2936;47.348;9.640;2023-04-02T06:55:55;3.90;;;3.70;;
5819;SDS011;2936;47.348;9.640;2023-04-02T06:58:27;2.95;;;2.85;;
5819;SDS011;2936;47.348;9.640;2023-04-02T07:00:54;2.88;;;2.78;;
5819;SDS011;2936;47.348;9.640;2023-04-02T07:03:23;3.22;;;3.13;;
5819;SDS011;2936;47.348;9.640;2023-04-02T07:05:51;3.67;;;3.47;;
5819;SDS011;2936;47.348;9.640;2023-04-02T07:08:19;3.47;;;3.28;;
5819;SDS011;2936;47.348;9.640;2023-04-02T07:10:46;3.95;;;3.65;;
5819;SDS011;2936;47.348;9.640;2023-04-02T07:13:16;3.58;;;3.38;;
5819;SDS011;2936;47.348;9.640;2023-04-02T07:15:43;4.43;;;4.13;;
5819;SDS011;2936;47.348;9.640;2023-04-02T07:18:14;4.22;;;3.83;;
5819;SDS011;2936;47.348;9.640;2023-04-02T07:20:47;3.90;;;3.60;;
5819;SDS011;2936;47.348;9.640;2023-04-02T07:23:15;4.00;;;3.70;;
5819;SDS011;2936;47.348;9.640;2023-04-02T07:25:42;4.72;;;4.47;;
5819;SDS011;2936;47.348;9.640;2023-04-02T07:28:10;3.28;;;3.08;;
5819;SDS011;2936;47.348;9.640;2023-04-02T07:30:40;6.65;;;3.72;;
5819;SDS011;2936;47.348;9.640;2023-04-02T07:33:09;3.65;;;3.45;;
5819;SDS011;2936;47.348;9.640;2023-04-02T07:35:39;3.63;;;3.47;;
5819;SDS011;2936;47.348;9.640;2023-04-02T07:38:06;3.60;;;3.40;;
5819;SDS011;2936;47.348;9.640;2023-04-02T07:40:34;3.50;;;3.40;;
5819;SDS011;2936;47.348;9.640;2023-04-02T07:43:01;3.80;;;3.70;;
5819;SDS011;2936;47.348;9.640;2023-04-02T07:45:29;5.18;;;4.40;;
5819;SDS011;2936;47.348;9.640;2023-04-02T07:47:58;4.93;;;4.70;;
5819;SDS011;2936;47.348;9.640;2023-04-02T07:50:30;4.55;;;4.25;;
5819;SDS011;2936;47.348;9.640;2023-04-02T07:52:58;5.30;;;4.60;;
5819;SDS011;2936;47.348;9.640;2023-04-02T07:55:25;5.22;;;4.63;;
5819;SDS011;2936;47.348;9.640;2023-04-02T07:57:53;4.35;;;4.15;;
5819;SDS011;2936;47.348;9.640;2023-04-02T08:00:21;5.25;;;4.95;;
5819;SDS011;2936;47.348;9.640;2023-04-02T08:02:49;4.45;;;4.00;;
5819;SDS011;2936;47.348;9.640;2023-04-02T08:05:18;4.10;;;3.75;;
5819;SDS011;2936;47.348;9.640;2023-04-02T08:07:51;3.83;;;3.65;;
5819;SDS011;2936;47.348;9.640;2023-04-02T08:10:19;3.80;;;3.70;;
5819;SDS011;2936;47.348;9.640;2023-04-02T08:12:46;4.40;;;4.00;;
5819;SDS011;2936;47.348;9.640;2023-04-02T08:15:14;5.38;;;3.83;;
5819;SDS011;2936;47.348;9.640;2023-04-02T08:17:42;3.97;;;3.80;;
5819;SDS011;2936;47.348;9.640;2023-04-02T08:20:13;4.75;;;4.35;;
5819;SDS011;2936;47.348;9.640;2023-04-02T08:22:43;4.70;;;4.40;;
5819;SDS011;2936;47.348;9.640;2023-04-02T08:25:11;4.53;;;4.13;;
5819;SDS011;2936;47.348;9.640;2023-04-02T08:27:38;5.95;;;4.68;;
5819;SDS011;2936;47.348;9.640;2023-04-02T08:30:07;5.47;;;4.70;;
5819;SDS011;2936;47.348;9.640;2023-04-02T08:32:34;5.55;;;4.60;;
5819;SDS011;2936;47.348;9.640;2023-04-02T08:35:05;4.80;;;4.40;;
5819;SDS011;2936;47.348;9.640;2023-04-02T08:37:34;4.13;;;3.92;;
5819;SDS011;2936;47.348;9.640;2023-04-02T08:40:03;5.07;;;4.63;;
5819;SDS011;2936;47.348;9.640;2023-04-02T08:42:33;4.20;;;4.00;;
5819;SDS011;2936;47.348;9.640;2023-04-02T08:45:02;4.38;;;3.85;;
5819;SDS011;2936;47.348;9.640;2023-04-02T08:47:32;4.22;;;3.97;;
5819;SDS011;2936;47.348;9.640;2023-04-02T08:50:02;4.07;;;3.88;;
5819;SDS011;2936;47.348;9.640;2023-04-02T08:52:33;4.18;;;3.95;;
5819;SDS011;2936;47.348;9.640;2023-04-02T08:55:04;8.48;;;3.97;;
5819;SDS011;2936;47.348;9.640;2023-04-02T08:57:37;3.70;;;3.50;;
5819;SDS011;2936;47.348;9.640;2023-04-02T09:00:17;4.38;;;3.97;;
5819;SDS011;2936;47.348;9.640;2023-04-02T09:02:48;4.15;;;3.75;;
5819;SDS011;2936;47.348;9.640;2023-04-02T09:05:21;3.90;;;3.60;;
5819;SDS011;2936;47.348;9.640;2023-04-02T09:07:49;3.60;;;3.40;;
5819;SDS011;2936;47.348;9.640;2023-04-02T09:10:21;3.13;;;2.83;;
5819;SDS011;2936;47.348;9.640;2023-04-02T09:12:51;7.93;;;3.80;;
5819;SDS011;2936;47.348;9.640;2023-04-02T09:15:21;3.80;;;3.58;;
5819;SDS011;2936;47.348;9.640;2023-04-02T09:17:51;3.80;;;3.50;;
5819;SDS011;2936;47.348;9.640;2023-04-02T09:20:22;5.72;;;3.22;;
5819;SDS011;2936;47.348;9.640;2023-04-02T09:22:51;4.72;;;3.17;;
5819;SDS011;2936;47.348;9.640;2023-04-02T09:25:22;2.90;;;2.70;;
5819;SDS011;2936;47.348;9.640;2023-04-02T09:27:52;3.20;;;3.10;;
5819;SDS011;2936;47.348;9.640;2023-04-02T09:30:23;3.65;;;3.15;;
5819;SDS011;2936;47.348;9.640;2023-04-02T09:32:54;3.40;;;3.20;;
5819;SDS011;2936;47.348;9.640;2023-04-02T09:35:23;3.28;;;3.10;;
5819;SDS011;2936;47.348;9.640;2023-04-02T09:40:35;3.55;;;3.10;;
5819;SDS011;2936;47.348;9.640;2023-04-02T09:43:09;2.72;;;2.63;;
5819;SDS011;2936;47.348;9.640;2023-04-02T09:45:37;2.95;;;2.80;;
5819;SDS011;2936;47.348;9.640;2023-04-02T09:48:14;2.83;;;2.72;;
5819;SDS011;2936;47.348;9.640;2023-04-02T09:50:44;2.92;;;2.80;;
5819;SDS011;2936;47.348;9.640;2023-04-02T09:53:25;2.13;;;2.03;;
5819;SDS011;2936;47.348;9.640;2023-04-02T09:56:08;6.57;;;2.40;;
5819;SDS011;2936;47.348;9.640;2023-04-02T09:58:36;4.93;;;4.53;;
5819;SDS011;2936;47.348;9.640;2023-04-02T10:01:03;3.17;;;2.72;;
5819;SDS011;2936;47.348;9.640;2023-04-02T10:03:35;2.20;;;2.10;;
5819;SDS011;2936;47.348;9.640;2023-04-02T10:06:04;2.40;;;2.25;;
5819;SDS011;2936;47.348;9.640;2023-04-02T10:08:33;3.00;;;2.30;;
5819;SDS011;2936;47.348;9.640;2023-04-02T10:11:02;2.25;;;2.15;;
5819;SDS011;2936;47.348;9.640;2023-04-02T10:13:32;2.17;;;2.08;;
5819;SDS011;2936;47.348;9.640;2023-04-02T10:16:02;3.13;;;2.35;;
5819;SDS011;2936;47.348;9.640;2023-04-02T10:18:35;2.65;;;2.45;;
5819;SDS011;2936;47.348;9.640;2023-04-02T10:21:04;2.95;;;2.75;;
5819;SDS011;2936;47.348;9.640;2023-04-02T10:23:32;2.30;;;2.20;;
5819;SDS011;2936;47.348;9.640;2023-04-02T10:26:02;2.25;;;2.05;;
5819;SDS011;2936;47.348;9.640;2023-04-02T10:28:39;2.17;;;2.00;;
5819;SDS011;2936;47.348;9.640;2023-04-02T10:31:09;2.25;;;2.05;;
5819;SDS011;2936;47.348;9.640;2023-04-02T10:33:41;2.20;;;2.10;;
5819;SDS011;2936;47.348;9.640;2023-04-02T10:36:16;2.30;;;2.20;;
5819;SDS011;2936;47.348;9.640;2023-04-02T10:38:48;2.63;;;2.40;;
5819;SDS011;2936;47.348;9.640;2023-04-02T10:41:21;3.08;;;2.25;;
5819;SDS011;2936;47.348;9.640;2023-04-02T10:43:59;2.63;;;2.33;;
5819;SDS011;2936;47.348;9.640;2023-04-02T10:46:31;3.42;;;2.28;;
5819;SDS011;2936;47.348;9.640;2023-04-02T10:49:02;2.05;;;1.90;;
5819;SDS011;2936;47.348;9.640;2023-04-02T10:51:33;2.50;;;2.30;;
5819;SDS011;2936;47.348;9.640;2023-04-02T10:54:06;2.50;;;2.30;;
5819;SDS011;2936;47.348;9.640;2023-04-02T10:56:39;2.22;;;2.13;;
5819;SDS011;2936;47.348;9.640;2023-04-02T10:59:12;2.20;;;2.08;;
5819;SDS011;2936;47.348;9.640;2023-04-02T11:01:43;2.22;;;2.13;;
5819;SDS011;2936;47.348;9.640;2023-04-02T11:04:13;4.43;;;2.50;;
5819;SDS011;2936;47.348;9.640;2023-04-02T11:06:43;2.03;;;2.03;;
5819;SDS011;2936;47.348;9.640;2023-04-02T11:09:13;2.55;;;2.45;;
5819;SDS011;2936;47.348;9.640;2023-04-02T11:11:42;2.20;;;2.10;;
5819;SDS011;2936;47.348;9.640;2023-04-02T11:14:12;2.30;;;1.85;;
5819;SDS011;2936;47.348;9.640;2023-04-02T11:16:41;6.20;;;2.22;;
5819;SDS011;2936;47.348;9.640;2023-04-02T11:21:58;2.30;;;2.20;;
5819;SDS011;2936;47.348;9.640;2023-04-02T11:24:36;2.65;;;2.50;;
5819;SDS011;2936;47.348;9.640;2023-04-02T11:27:06;2.40;;;2.17;;
5819;SDS011;2936;47.348;9.640;2023-04-02T11:29:36;2.20;;;2.10;;
5819;SDS011;2936;47.348;9.640;2023-04-02T11:32:25;4.22;;;2.35;;
5819;SDS011;2936;47.348;9.640;2023-04-02T11:34:56;2.60;;;2.40;;
5819;SDS011;2936;47.348;9.640;2023-04-02T11:37:32;2.20;;;2.10;;
5819;SDS011;2936;47.348;9.640;2023-04-02T11:40:05;2.30;;;2.20;;
5819;SDS011;2936;47.348;9.640;2023-04-02T11:42:39;2.47;;;2.30;;
5819;SDS011;2936;47.348;9.640;2023-04-02T11:50:39;2.38;;;2.25;;
5819;SDS011;2936;47.348;9.640;2023-04-02T11:53:17;4.70;;;2.17;;
5819;SDS011;2936;47.348;9.640;2023-04-02T11:55:46;1.90;;;1.80;;
5819;SDS011;2936;47.348;9.640;2023-04-02T11:58:37;2.10;;;2.00;;
5819;SDS011;2936;47.348;9.640;2023-04-02T12:04:03;6.32;;;2.58;;
5819;SDS011;2936;47.348;9.640;2023-04-02T12:06:39;1.92;;;1.83;;
5819;SDS011;2936;47.348;9.640;2023-04-02T12:09:14;2.17;;;2.08;;
5819;SDS011;2936;47.348;9.640;2023-04-02T12:11:44;2.20;;;2.10;;
5819;SDS011;2936;47.348;9.640;2023-04-02T12:14:29;2.95;;;1.75;;
5819;SDS011;2936;47.348;9.640;2023-04-02T12:16:56;2.25;;;2.05;;
5819;SDS011;2936;47.348;9.640;2023-04-02T12:19:24;2.20;;;2.10;;
5819;SDS011;2936;47.348;9.640;2023-04-02T12:21:56;1.80;;;1.70;;
5819;SDS011;2936;47.348;9.640;2023-04-02T12:24:25;2.25;;;2.15;;
5819;SDS011;2936;47.348;9.640;2023-04-02T12:27:07;2.45;;;2.28;;
5819;SDS011;2936;47.348;9.640;2023-04-02T12:29:39;2.85;;;2.13;;
5819;SDS011;2936;47.348;9.640;2023-04-02T12:32:11;2.47;;;2.28;;
5819;SDS011;2936;47.348;9.640;2023-04-02T12:34:43;2.10;;;2.00;;
5819;SDS011;2936;47.348;9.640;2023-04-02T12:37:18;2.25;;;2.10;;
5819;SDS011;2936;47.348;9.640;2023-04-02T12:39:50;2.10;;;2.00;;
5819;SDS011;2936;47.348;9.640;2023-04-02T12:42:24;2.00;;;1.90;;
5819;SDS011;2936;47.348;9.640;2023-04-02T12:44:52;2.00;;;1.90;;
5819;SDS011;2936;47.348;9.640;2023-04-02T12:47:20;9.40;;;2.72;;
5819;SDS011;2936;47.348;9.640;2023-04-02T12:49:47;3.20;;;2.03;;
5819;SDS011;2936;47.348;9.640;2023-04-02T12:52:17;5.00;;;2.53;;
5819;SDS011;2936;47.348;9.640;2023-04-02T12:54:46;2.20;;;2.00;;
5819;SDS011;2936;47.348;9.640;2023-04-02T12:57:21;2.55;;;2.05;;
5819;SDS011;2936;47.348;9.640;2023-04-02T12:59:49;2.20;;;2.10;;
5819;SDS011;2936;47.348;9.640;2023-04-02T13:02:17;2.30;;;2.20;;
5819;SDS011;2936;47.348;9.640;2023-04-02T13:04:46;2.00;;;1.90;;
5819;SDS011;2936;47.348;9.640;2023-04-02T13:07:14;1.95;;;1.85;;
5819;SDS011;2936;47.348;9.640;2023-04-02T13:09:46;1.90;;;1.80;;
5819;SDS011;2936;47.348;9.640;2023-04-02T13:12:23;1.90;;;1.77;;
5819;SDS011;2936;47.348;9.640;2023-04-02T13:14:51;2.03;;;1.98;;
5819;SDS011;2936;47.348;9.640;2023-04-02T13:17:35;2.00;;;1.90;;
5819;SDS011;2936;47.348;9.640;2023-04-02T13:22:49;1.88;;;1.77;;
5819;SDS011;2936;47.348;9.640;2023-04-02T13:25:26;2.92;;;2.35;;
5819;SDS011;2936;47.348;9.640;2023-04-02T13:27:54;2.00;;;1.90;;
5819;SDS011;2936;47.348;9.640;2023-04-02T13:30:22;2.78;;;1.90;;
5819;SDS011;2936;47.348;9.640;2023-04-02T13:32:50;2.10;;;2.00;;
5819;SDS011;2936;47.348;9.640;2023-04-02T13:35:17;1.85;;;1.85;;
5819;SDS011;2936;47.348;9.640;2023-04-02T13:37:45;1.88;;;1.80;;
5819;SDS011;2936;47.348;9.640;2023-04-02T13:40:13;2.00;;;1.90;;
5819;SDS011;2936;47.348;9.640;2023-04-02T13:42:43;2.35;;;2.10;;
5819;SDS011;2936;47.348;9.640;2023-04-02T13:45:16;3.70;;;1.95;;
5819;SDS011;2936;47.348;9.640;2023-04-02T13:47:46;2.20;;;2.10;;
5819;SDS011;2936;47.348;9.640;2023-04-02T13:50:15;2.53;;;2.42;;
5819;SDS011;2936;47.348;9.640;2023-04-02T13:52:44;2.40;;;2.20;;
5819;SDS011;2936;47.348;9.640;2023-04-02T13:55:12;4.00;;;2.00;;
5819;SDS011;2936;47.348;9.640;2023-04-02T13:57:39;2.35;;;2.15;;
5819;SDS011;2936;47.348;9.640;2023-04-02T14:00:09;1.77;;;1.67;;
5819;SDS011;2936;47.348;9.640;2023-04-02T14:02:38;2.03;;;1.92;;
5819;SDS011;2936;47.348;9.640;2023-04-02T14:05:12;1.85;;;1.75;;
5819;SDS011;2936;47.348;9.640;2023-04-02T14:07:45;2.00;;;1.90;;
5819;SDS011;2936;47.348;9.640;2023-04-02T14:10:19;1.95;;;1.85;;
5819;SDS011;2936;47.348;9.640;2023-04-02T14:12:52;2.60;;;1.95;;
5819;SDS011;2936;47.348;9.640;2023-04-02T14:15:26;2.22;;;2.13;;
5819;SDS011;2936;47.348;9.640;2023-04-02T14:18:03;3.70;;;3.42;;
5819;SDS011;2936;47.348;9.640;2023-04-02T14:20:36;2.72;;;2.53;;
5819;SDS011;2936;47.348;9.640;2023-04-02T14:23:11;2.00;;;1.90;;
5819;SDS011;2936;47.348;9.640;2023-04-02T14:25:43;3.20;;;2.92;;
5819;SDS011;2936;47.348;9.640;2023-04-02T14:28:16;2.50;;;2.30;;
5819;SDS011;2936;47.348;9.640;2023-04-02T14:30:50;2.72;;;2.63;;
5819;SDS011;2936;47.348;9.640;2023-04-02T14:33:21;2.00;;;2.00;;
5819;SDS011;2936;47.348;9.640;2023-04-02T14:35:53;5.60;;;5.20;;
5819;SDS011;2936;47.348;9.640;2023-04-02T14:38:24;2.10;;;2.00;;
5819;SDS011;2936;47.348;9.640;2023-04-02T14:40:55;6.57;;;1.98;;
5819;SDS011;2936;47.348;9.640;2023-04-02T14:43:24;7.93;;;2.10;;
5819;SDS011;2936;47.348;9.640;2023-04-02T14:45:58;2.10;;;2.00;;
5819;SDS011;2936;47.348;9.640;2023-04-02T14:48:32;2.10;;;2.00;;
5819;SDS011;2936;47.348;9.640;2023-04-02T14:51:04;2.10;;;2.00;;
5819;SDS011;2936;47.348;9.640;2023-04-02T14:53:33;2.22;;;2.13;;
5819;SDS011;2936;47.348;9.640;2023-04-02T14:56:01;2.00;;;1.90;;
5819;SDS011;2936;47.348;9.640;2023-04-02T14:58:32;2.22;;;2.10;;
5819;SDS011;2936;47.348;9.640;2023-04-02T15:01:02;2.97;;;2.20;;
5819;SDS011;2936;47.348;9.640;2023-04-02T15:03:33;1.88;;;1.88;;
5819;SDS011;2936;47.348;9.640;2023-04-02T15:06:04;2.10;;;2.00;;
5819;SDS011;2936;47.348;9.640;2023-04-02T15:08:33;2.40;;;2.30;;
5819;SDS011;2936;47.348;9.640;2023-04-02T15:11:05;4.32;;;2.17;;
5819;SDS011;2936;47.348;9.640;2023-04-02T15:13:35;2.20;;;1.90;;
5819;SDS011;2936;47.348;9.640;2023-04-02T15:16:06;2.45;;;2.25;;
5819;SDS011;2936;47.348;9.640;2023-04-02T15:18:34;2.13;;;2.03;;
5819;SDS011;2936;47.348;9.640;2023-04-02T15:21:04;1.90;;;1.80;;
5819;SDS011;2936;47.348;9.640;2023-04-02T15:23:37;2.53;;;2.30;;
5819;SDS011;2936;47.348;9.640;2023-04-02T15:26:11;2.40;;;2.20;;
5819;SDS011;2936;47.348;9.640;2023-04-02T15:28:42;2.33;;;2.22;;
5819;SDS011;2936;47.348;9.640;2023-04-02T15:31:14;1.92;;;1.83;;
5819;SDS011;2936;47.348;9.640;2023-04-02T15:33:42;2.33;;;2.13;;
5819;SDS011;2936;47.348;9.640;2023-04-02T15:38:57;2.03;;;1.92;;
5819;SDS011;2936;47.348;9.640;2023-04-02T15:41:28;1.75;;;1.65;;
5819;SDS011;2936;47.348;9.640;2023-04-02T15:44:00;2.10;;;2.00;;
5819;SDS011;2936;47.348;9.640;2023-04-02T15:46:34;1.88;;;1.75;;
5819;SDS011;2936;47.348;9.640;2023-04-02T15:49:08;1.80;;;1.70;;
5819;SDS011;2936;47.348;9.640;2023-04-02T15:51:43;2.35;;;2.13;;
5819;SDS011;2936;47.348;9.640;2023-04-02T15:54:18;1.83;;;1.73;;
5819;SDS011;2936;47.348;9.640;2023-04-02T15:56:54;2.00;;;1.90;;
5819;SDS011;2936;47.348;9.640;2023-04-02T15:59:50;1.90;;;1.80;;